AirNav   Pilot Hours Calculator
 
 1410 users online  

7PN9 East Forest Junior/Senior High School Heliport
Marienville, Pennsylvania, USA

GOING TO MARIENVILLE?


FAA INFORMATION EFFECTIVE 05 DECEMBER 2019

Location

FAA Identifier: 7PN9
Lat/Long: 41-28-30.0300N 079-07-33.9900W
41-28.500500N 079-07.566500W
41.4750083,-79.1261083
(estimated)
Elevation: 1751 ft. / 534 m (estimated)
Variation: 10W (2010)
From city: 1 mile NW of MARIENVILLE, PA
Time zone: UTC -5 (UTC -4 during Daylight Saving Time)
Zip code: 16239

Heliport Operations

Heliport use: Private use, MEDICAL USE.
Activation date: 01/2007
Control tower: no
ARTCC: CLEVELAND CENTER
FSS: ALTOONA FLIGHT SERVICE STATION
NOTAMs facility: FDC (NOTAM-D service not available)
Attendance: UNATNDD
Segmented circle: no
Lights: FOR PERIMETER LGTS CALL 814-927-6688.

Nearby radio navigation aids

VOR radial/distance  VOR name  Freq  Var
TDTr147/19.4TIDIOUTE VORTAC117.6009W
CIPr043/24.8CLARION VOR/DME112.9006W
BFDr238/29.4BRADFORD VOR/DME116.6007W
FKLr092/(32.9)FRANKLIN VOR109.6006W

 
NDB name  Hdg/Dist  Freq  Var  ID
CORRY148/35.225810WORJ --- .-. .---

Heliport Services

Runway Information

Helipad H1

Dimensions: 50 x 50 ft. / 15 x 15 m
Surface: concrete
Runway edge lights: PERI
Traffic pattern: leftleft

Heliport Ownership and Management from official FAA records

Ownership: Privately-owned
Owner: EAST FOREST JR./SR HI SCHOOL
PO BOX 308
MARIENVILLE, PA 16239
Phone 814-927-6688
Manager: EAST FOREST JR./SR HI SCHOOL
PO BOX 308
MARIENVILLE, PA 16239
Phone 814-927-6688

Additional Remarks

FOR CD CTC CLEVELAND ARTCC AT 440-774-0227.

Instrument Procedures

There are no published instrument procedures at 7PN9.

Some nearby airports with instrument procedures:

KDUJ - Dubois Regional Airport (21 nm SE)
KAXQ - Clarion County Airport (21 nm SW)
KOYM - St Marys Municipal Airport (28 nm E)
6G1 - Titusville Airport (29 nm W)
KBFD - Bradford Regional Airport (29 nm NE)
 
Loc | Ops | Rwys | IFR | FBO | Links
Com | Nav | Svcs | Stats | Notes
Area around 7PN9 (East Forest Junior/Senior High School Heliport)
 
Road maps at: MapQuest Bing Google
 
Aerial photo
No photo
 
Sectional chart

 
Airport distance calculator
Flying to East Forest Junior/Senior High School Heliport? Find the distance to fly.

From to 7PN9

Sunrise and sunset
Times for 06-Dec-2019
 Local
(UTC-5)
 Zulu
(UTC)
Morning civil twilight06:5811:58
Sunrise07:2912:29
Sunset16:4621:46
Evening civil twilight17:1722:17

Current date and time
Zulu (UTC)  06-Dec-2019 15:42:17
Local (UTC-5)  06-Dec-2019 10:42:17
 
METAR
KDUJ 
21nm SE 
061453Z AUTO 23012KT 10SM BKN070 OVC095 03/M03 A2992 RMK AO2 SLP147 T00331033 56015
KOYM 
28nm E 
061454Z AUTO 23008G15KT 10SM SCT060 OVC070 02/M02 A2993 RMK AO2
KBFD 
29nm NE 
061453Z AUTO 23005KT 10SM FEW048 OVC080 01/M03 A2988 RMK AO2 SLP137 60001 T00111028 56012
KFKL 
34nm W 
061456Z AUTO 22007KT 10SM BKN060 OVC070 03/M02 A2995 RMK AO2 SLP156 T00281022 55001
KJHW 
40nm N 
061456Z AUTO 22011KT 10SM OVC026 02/M02 A2989 RMK AO2 RAE07 SLP143 P0000 60000 T00171017 55001 FZRANO
KFIG 
41nm SE 
061454Z AUTO 21006KT 10SM FEW055 BKN070 OVC090 01/M03 A2996 RMK AO2 SLP161 60000 T00111028 56017
TAF
KDUJ 
21nm SE 
061132Z 0612/0712 20006KT P6SM OVC050 WS020/26035KT FM061400 25011G18KT P6SM OVC100 FM061700 27010G21KT P6SM OVC015 FM070200 31005KT P6SM OVC025
NOTAMs
Click for the latest NOTAMs
NOTAMs are issued by the DoD/FAA and will open in a separate window not controlled by AirNav.

 

 
 

Would you like to see your business listed on this page?

 If your business provides an interesting product or service to pilots, flight crews, aircraft, or users of the East Forest Junior/Senior High School Heliport, you should consider listing it here.  To start the listing process, click on the button below
 
Add a business
 

Other Pages about East Forest Junior/Senior High School Heliport

Update a link
 
Copyright © AirNav, LLC. All rights reserved. Privacy Policy  Contact